Terminal Aerodrome Forecast
Issued by NWS

Home | Current Version | Previous Version | Text Only | Print | Product List | Glossary On
Versions: 1 2 3 4 5 6 7 8 9 10 11 12 13 14 15
000
FTUS45 KRIW 010500
TAFBPI
TAF
KBPI 010523Z 0106/0206 VRB06KT P6SM SCT250
     FM011800 VRB05KT P6SM SCT090
     FM012200 VRB08G18KT P6SM VCTS BKN090CB
     FM020200 VRB05KT P6SM VCSH BKN100
     FM020500 VRB05KT P6SM SCT110=

USA.gov is the U.S. government's official web portal to all federal, state and local government web resources and services.